LJPZ/POW METAR and TAF weather

Enter ICAO airport designator
Station Type Date Time Source
LJPZ METAR 2021/09/24 03:30 UTC NOAA

LJPZ 240330Z AUTO 12004KT 9999 BKN032/// BKN049/// 16/12 Q1018


Station Type Date Time Source
LJPZ Decoded METAR 2021/09/24 03:30 UTC NOAA

Portoroz, Slovenia (LJPZ) 45-31N 013-34E
Sep 23, 2021 - 11:30 PM EDT / 2021.09.24 0330 UTC
Wind: from the ESE (120 degrees) at 5 MPH (4 KT):0
Visibility: greater than 7 mile(s):0
Sky conditions: mostly cloudy
Temperature: 60 F (16 C)
Dew Point: 53 F (12 C)
Relative Humidity: 77%
Pressure (altimeter): 30.06 in. Hg (1018 hPa)
ob: LJPZ 240330Z AUTO 12004KT 9999 BKN032/// BKN049/// 16/12 Q1018
cycle: 3

Station Type Date Time Source
LJPZ TAF 2020/09/27 12:21 UTC NOAA

TAF TAF LJPZ 271100Z 2712/2821 30003KT 9999 FEW050 PROB30
TEMPO 2712/2718 -SHRA SCT040TCU BKN070
BECMG 2718/2720 06012G25KT RA

Example: see airport list